Latest tweets that mention www.meteo.dz

nam mo

Météo pour Beni Douala - Prévision AccuWeather pour Wilaya de Tizi Ouzou Algérie (FR) https://t.co/1JOK98nebEhttps://twitter.com/nammo16

1 month ago

Yasmina Zrd

RT @PauloChaud: Ton prof de sport : " la météo est bonne, on peut faire sport" http://t.co/dqzxxYvNrqhttps://twitter.com/Yassmiina_Dz

1 month ago

♣️ Maxwell ®™

RT @francetvinfo: Le bilan du séisme en Equateur s'est alourdi, et fait état de 413 morts ➡️ https://t.co/kBnaT6P74Y https://t.co/enb2hidl…https://twitter.com/OuaeL_DZ

1 month ago

München Neuhausen

07:30 METAR EDDM 180520Z VRB02KT 6000 -DZ SCT006 OVC011 06/06 Q1018 TEMPO BKN006 #METAR https://t.co/ueMGUkvkXThttps://twitter.com/meteo_muenchen

1 month ago

München Neuhausen

07:00 METAR EDDM 180450Z 02004KT 340V070 6000 -DZ SCT006 OVC008 06/06 Q1017 TEMPO BKN006 #METAR https://t.co/ueMGUkvkXThttps://twitter.com/meteo_muenchen

1 month ago

Latest tweets that mention “Météo DZ”

nam mo

Météo pour Beni Douala - Prévision AccuWeather pour Wilaya de Tizi Ouzou Algérie (FR) https://t.co/1JOK98nebE

https://twitter.com/nammo16

1 month ago

Yasmina Zrd

RT @PauloChaud: Ton prof de sport : " la météo est bonne, on peut faire sport" http://t.co/dqzxxYvNrq

https://twitter.com/Yassmiina_Dz

1 month ago

♣️ Maxwell ®™

RT @francetvinfo: Le bilan du séisme en Equateur s'est alourdi, et fait état de 413 morts ➡️ https://t.co/kBnaT6P74Y https://t.co/enb2hidl…

https://twitter.com/OuaeL_DZ

1 month ago

München Neuhausen

07:30 METAR EDDM 180520Z VRB02KT 6000 -DZ SCT006 OVC011 06/06 Q1018 TEMPO BKN006 #METAR https://t.co/ueMGUkvkXT

https://twitter.com/meteo_muenchen

1 month ago

München Neuhausen

07:00 METAR EDDM 180450Z 02004KT 340V070 6000 -DZ SCT006 OVC008 06/06 Q1017 TEMPO BKN006 #METAR https://t.co/ueMGUkvkXT

https://twitter.com/meteo_muenchen

1 month ago